Estación municipal de Roda de Ter (Osona, Plana de Vic)

Consulta los datos en tiempo real de la estación municipal de Roda de Ter





Hora UTC 19:15
Temperatura 15.0 ºC
Humedad 71.1 %
Pluja 0.1 mm
Velocidad viento 13.1 km/h
Dirección viento WSW

Webcam

Datos diarios 2026-05-10



Hora UTC (invierno +1h; verano +2h)
Temperatura (ºC) Humedad (%) Velocidad viento (km/h) Precipitación (mm)
Hora UTC Aire Humedad Vel. Dir. Vel. Max Dir. Intent. máx 5 min.
00:05 11.6 100.0 4.9 SW 4.9 SW 0.0
00:10 11.6 100.0 4.6 SW 6.7 SW 0.0
00:15 11.5 100.0 2.8 SW 5.3 SW 0.0
00:20 11.4 100.0 1.3 SW 2.8 SW 0.0
00:25 11.4 100.0 2.2 SW 3.9 SW 0.0
00:30 11.2 100.0 2.6 SW 4.2 SW 0.0
00:35 11.2 100.0 1.6 SW 3.5 SW 0.0
00:40 11.2 100.0 3.1 WSW 4.6 WSW 0.0
00:45 11.1 100.0 2.8 WSW 4.6 WSW 0.0
00:50 11.0 100.0 3.4 WSW 4.6 WSW 0.0
00:55 10.8 100.0 3.3 WSW 4.9 WSW 0.0
01:00 10.8 100.0 1.3 WSW 2.8 WSW 0.0
01:05 10.6 100.0 1.9 WSW 2.8 WSW 0.0
01:10 10.3 100.0 1.1 WSW 2.8 WSW 0.0
01:15 10.4 100.0 1.3 WSW 3.9 WSW 0.0
01:20 10.1 100.0 0.0 WSW 1.1 WSW 0.0
01:25 9.8 100.0 1.4 WSW 3.2 WSW 0.0
01:30 9.8 100.0 2.2 WSW 3.2 WSW 0.0
01:35 9.2 100.0 0.2 WSW 1.8 WSW 0.0
01:40 9.0 100.0 0.6 WSW 1.4 WSW 0.0
01:45 9.2 100.0 0.9 WSW 1.8 WSW 0.0
01:50 9.2 100.0 0.0 NNE 0.0 WSW 0.0
01:55 9.2 100.0 0.0 NNE 0.0 WSW 0.0
02:00 9.1 100.0 0.0 WSW 1.1 WSW 0.0
02:05 8.9 100.0 0.0 NNE 0.0 WSW 0.0
02:10 9.1 100.0 0.0 NNE 0.0 WSW 0.1
02:15 9.1 100.0 0.0 NNE 0.0 WSW 0.0
02:20 9.2 100.0 0.0 NNE 0.0 WSW 0.0
02:25 8.6 100.0 0.0 NNE 0.0 WSW 0.0
02:30 8.5 100.0 0.0 NNE 0.0 WSW 0.0
02:35 8.3 100.0 0.0 NNE 0.0 WSW 0.0
02:40 8.2 100.0 0.0 NNE 0.0 WSW 0.0
02:45 7.8 100.0 0.0 NNE 0.0 WSW 0.0
02:50 8.0 100.0 1.1 WSW 1.8 WSW 0.0
02:55 8.3 100.0 4.1 N 5.6 NNE 0.0
03:00 7.9 100.0 2.8 NNE 5.6 NNE 0.0
03:05 7.9 100.0 2.4 NNE 4.6 NNE 0.0
03:10 8.4 100.0 3.8 NNE 4.9 NNE 0.0
03:15 8.3 100.0 1.6 NNE 4.2 NNE 0.0
03:20 8.6 100.0 0.6 NNE 2.1 NNE 0.0
03:25 8.8 100.0 0.1 NNE 1.8 NNE 0.0
03:30 8.6 100.0 0.0 NNE 0.0 NNE 0.0
03:35 8.6 100.0 0.0 NNE 0.0 NNE 0.0
03:40 8.7 100.0 0.0 NNE 0.0 NNE 0.0
03:45 8.8 100.0 0.7 NNE 2.5 NNE 0.0
03:50 8.8 100.0 0.0 NNE 0.0 NNE 0.0
03:55 8.6 100.0 0.0 NNE 0.0 NNE 0.0
04:00 8.8 100.0 0.0 NNE 0.0 NNE 0.0
04:05 8.7 100.0 0.0 NNE 0.0 NNE 0.0
04:10 8.4 100.0 0.5 N 2.1 NNE 0.0
04:15 8.7 100.0 1.0 N 2.8 N 0.0
04:20 8.8 100.0 1.2 NNE 3.2 NNE 0.0
04:25 8.4 100.0 0.0 NNE 0.0 NNE 0.0
04:30 8.2 100.0 0.0 NNE 0.0 NNE 0.0
04:35 8.7 100.0 0.0 NNE 0.0 NNE 0.0
04:40 8.7 100.0 0.0 NNE 0.0 NNE 0.0
04:45 8.5 100.0 0.0 NNE 0.0 N 0.0
04:50 8.4 100.0 0.0 NNE 0.0 N 0.0
04:55 8.4 100.0 0.0 NNE 0.0 N 0.0
05:00 8.6 100.0 0.8 NNE 3.9 NNE 0.0
05:05 8.7 100.0 2.4 NNE 4.6 NNE 0.0
05:10 8.7 100.0 1.7 NNE 3.2 NNE 0.0
05:15 8.8 100.0 1.5 NNE 3.9 NNE 0.0
05:20 8.9 100.0 2.5 NE 5.6 ENE 0.0
05:25 8.9 100.0 2.0 ENE 3.2 ENE 0.0
05:30 9.1 100.0 1.4 ENE 2.5 ENE 0.0
05:35 9.3 100.0 3.1 ENE 4.6 ENE 0.0
05:40 9.5 100.0 1.6 NE 3.9 ENE 0.0
05:45 9.8 100.0 0.0 NNE 0.0 NE 0.0
05:50 10.0 100.0 0.1 NE 1.4 NE 0.0
05:55 10.2 100.0 0.0 NNE 0.0 NE 0.0
06:00 10.3 100.0 0.0 NNE 0.0 NE 0.0
06:05 10.5 100.0 0.0 NNE 0.0 NE 0.0
06:10 10.7 100.0 0.1 NE 1.1 NE 0.0
06:15 10.9 100.0 0.0 NNE 0.0 NE 0.0
06:20 11.1 100.0 0.2 NE 2.8 NE 0.0
06:25 11.2 100.0 2.4 NW 5.6 NNW 0.0
06:30 11.4 100.0 2.4 NW 5.3 NW 0.0
06:35 11.4 100.0 3.7 NW 6.0 NW 0.0
06:40 11.5 100.0 3.3 NNW 6.4 N 0.0
06:45 11.5 100.0 4.3 WNW 6.4 WNW 0.0
06:50 11.7 100.0 2.5 NW 7.1 NW 0.0
06:55 11.8 100.0 4.3 NW 6.7 NW 0.0
07:00 12.0 100.0 2.3 NW 5.3 NW 0.0
07:05 12.2 99.5 0.2 NNW 1.8 NNW 0.0
07:10 12.5 99.0 0.8 SSW 4.2 SSW 0.0
07:15 12.5 96.8 0.4 SW 3.9 W 0.0
07:20 12.6 94.6 1.7 WNW 4.6 WNW 0.0
07:25 12.8 94.2 2.7 NW 6.7 NW 0.0
07:30 13.1 92.9 4.1 NW 7.1 WNW 0.0
07:35 13.2 91.9 3.6 NNW 6.4 NNW 0.0
07:40 13.4 91.1 6.7 NNW 10.6 NNW 0.0
07:45 13.6 90.1 5.9 NNW 10.2 NNW 0.0
07:50 13.8 88.6 3.9 NNW 7.1 NNE 0.0
07:55 14.1 89.0 3.7 NW 7.8 NNW 0.0
08:00 14.0 87.4 6.3 NW 9.9 NW 0.0
08:05 13.8 86.3 2.4 NW 8.1 WNW 0.0
08:10 14.3 84.2 4.0 WNW 7.4 W 0.0
08:15 15.1 82.0 6.6 WSW 10.9 W 0.0
08:20 15.0 82.5 5.0 NW 9.9 NNW 0.0
08:25 14.4 85.0 9.3 NW 12.7 NNW 0.0
08:30 14.2 86.4 7.5 NW 12.0 NNW 0.0
08:35 14.8 83.0 3.6 NNW 7.4 NW 0.0
08:40 15.1 78.3 0.1 NNW 2.1 NNW 0.0
08:45 15.5 78.8 1.3 WNW 4.2 NW 0.0
08:50 15.6 77.7 0.9 WSW 3.5 WSW 0.0
08:55 16.0 79.5 6.0 NNW 10.6 NW 0.0
09:00 15.8 78.0 5.4 N 9.2 NNE 0.0
09:05 15.8 79.3 3.8 WNW 8.1 NW 0.0
09:10 16.4 78.9 1.2 SE 6.4 E 0.0
09:15 16.9 74.4 4.3 ENE 9.2 ENE 0.0
09:20 16.4 78.7 2.7 NNW 7.4 NW 0.0
09:25 16.6 78.5 3.7 NW 8.5 NW 0.0
09:30 16.8 77.7 1.5 W 6.4 NNW 0.0
09:35 17.5 73.7 1.8 WSW 6.7 WSW 0.0
09:40 17.9 75.9 3.5 NW 11.6 W 0.0
09:45 17.8 72.4 6.2 NW 10.6 WNW 0.0
09:50 17.8 72.8 9.0 NW 19.1 SW 0.0
09:55 18.1 70.1 12.2 SW 18.4 S 0.0
10:00 18.3 68.4 10.0 W 17.3 W 0.0
10:05 18.7 68.7 11.2 W 20.5 W 0.0
10:10 18.8 66.2 12.9 W 19.8 WNW 0.0
10:15 18.9 64.7 14.5 WSW 25.1 WSW 0.0
10:20 19.1 61.8 18.2 WSW 25.8 WSW 0.0
10:25 19.1 61.5 14.2 WSW 25.8 WSW 0.0
10:30 19.5 60.2 11.1 SW 20.5 SW 0.0
10:35 19.7 63.1 13.4 W 20.1 W 0.0
10:40 19.5 61.8 10.8 W 16.6 W 0.0
10:45 19.6 64.8 12.5 W 22.6 W 0.0
10:50 19.8 62.1 15.2 W 23.3 WNW 0.0
10:55 20.1 61.6 14.9 W 27.5 W 0.0
11:00 20.1 59.4 22.2 WSW 35.3 WSW 0.0
11:05 19.8 60.8 21.5 W 33.9 WSW 0.0
11:10 19.9 60.6 21.4 W 33.2 W 0.0
11:15 20.1 59.5 19.8 W 29.3 W 0.0
11:20 20.3 58.3 20.5 WSW 38.5 SW 0.0
11:25 20.4 55.5 20.3 WSW 35.6 SW 0.0
11:30 20.5 56.9 21.9 WSW 37.4 SW 0.0
11:35 20.6 55.4 26.3 WSW 38.8 WSW 0.0
11:40 20.7 56.5 21.9 WSW 33.9 SW 0.0
11:45 21.1 53.9 22.4 WSW 35.6 SW 0.0
11:50 21.2 52.6 18.8 WSW 30.7 WSW 0.0
11:55 21.4 51.9 16.9 WSW 28.9 SW 0.0
12:00 21.4 51.8 20.4 WSW 36.3 WSW 0.0
12:05 21.2 51.6 19.5 WSW 30.0 WSW 0.0
12:10 21.3 51.6 18.2 WSW 29.6 SW 0.0
12:15 21.4 51.0 19.7 SSW 40.2 SW 0.0
12:20 21.6 48.2 24.7 SW 43.4 WSW 0.0
12:25 21.4 48.4 22.8 WSW 35.6 W 0.0
12:30 21.8 48.3 24.2 SW 40.6 SW 0.0
12:35 21.7 47.8 23.8 SW 38.5 SSW 0.0
12:40 21.8 48.1 18.8 SW 34.9 WSW 0.0
12:45 22.0 47.3 21.8 WSW 32.5 SW 0.0
12:50 22.0 46.2 21.2 SW 36.0 WSW 0.0
12:55 22.1 48.1 19.1 WSW 37.4 WSW 0.0
13:00 22.2 46.2 22.3 SW 35.6 SW 0.0
13:05 22.3 45.4 20.5 WSW 35.3 WSW 0.0
13:10 22.3 47.2 16.7 WSW 30.7 SSW 0.0
13:15 22.5 44.9 22.0 SW 36.3 SSW 0.0
13:20 22.3 45.1 27.0 SW 38.1 SW 0.0
13:25 22.2 46.7 17.2 WSW 26.8 SSW 0.0
13:30 22.4 46.2 19.4 WSW 32.5 W 0.0
13:35 21.8 46.0 21.6 SW 36.7 SW 0.0
13:40 22.5 45.4 21.7 SW 37.8 SW 0.0
13:45 22.5 43.6 21.9 SW 38.8 SSW 0.0
13:50 22.2 45.1 19.2 SW 34.6 SW 0.0
13:55 22.8 44.8 21.9 SW 34.9 SW 0.0
14:00 22.6 43.8 19.9 WSW 33.5 SW 0.0
14:05 22.9 44.7 18.7 WSW 32.1 W 0.0
14:10 22.7 42.5 21.1 WSW 42.7 SSW 0.0
14:15 22.6 41.5 23.7 W 37.4 W 0.0
14:20 22.6 42.7 24.1 W 34.2 W 0.0
14:25 22.7 40.6 24.0 WSW 39.2 WSW 0.0
14:30 22.6 38.7 19.7 WSW 32.5 WSW 0.0
14:35 22.6 39.7 20.7 WSW 31.1 W 0.0
14:40 22.8 37.2 20.4 WSW 34.2 SSW 0.0
14:45 23.1 35.5 18.9 WSW 30.3 S 0.0
14:50 23.0 36.9 21.5 W 31.4 NW 0.0
14:55 23.0 36.8 21.1 WSW 32.1 WSW 0.0
15:00 23.2 35.7 20.6 SW 33.9 SW 0.0
15:05 23.0 35.2 23.8 W 38.8 W 0.0
15:10 22.9 35.6 19.9 WSW 29.3 SSW 0.0
15:15 23.3 35.7 21.0 SW 31.8 SW 0.0
15:20 23.0 36.4 18.2 WSW 31.8 SW 0.0
15:25 23.0 34.9 19.7 SW 31.1 WSW 0.0
15:30 23.1 34.3 20.4 WSW 36.7 WSW 0.0
15:35 23.0 34.8 16.7 WSW 26.1 WSW 0.0
15:40 23.1 34.3 17.2 WSW 30.3 WSW 0.0
15:45 22.8 34.1 22.6 SW 36.7 WSW 0.0
15:50 22.9 34.4 19.7 WSW 31.4 WSW 0.0
15:55 22.8 33.4 24.5 SW 40.2 SW 0.0
16:00 22.6 33.9 19.5 SW 30.7 SW 0.0
16:05 22.9 34.5 19.0 SW 35.6 WSW 0.0
16:10 23.1 34.7 15.0 WSW 32.1 WSW 0.0
16:15 22.5 34.2 22.7 WSW 34.2 SSW 0.0
16:20 22.3 34.6 22.7 SW 38.8 SW 0.0
16:25 22.5 33.9 22.4 SW 31.8 WSW 0.0
16:30 22.6 33.7 22.3 SW 38.8 SSW 0.0
16:35 22.4 33.8 23.1 SW 38.1 WSW 0.0
16:40 22.4 33.2 21.6 SW 34.2 WSW 0.0
16:45 22.3 33.7 24.0 WSW 39.5 WSW 0.0
16:50 22.4 34.9 17.8 WSW 28.2 SW 0.0
16:55 22.5 34.8 18.2 WSW 31.8 WSW 0.0
17:00 22.0 34.7 20.0 WSW 30.7 W 0.0
17:05 21.5 38.1 15.8 SW 27.5 WSW 0.0
17:10 22.0 41.0 18.8 WSW 28.6 W 0.0
17:15 22.0 40.5 19.3 WSW 30.3 WSW 0.0
17:20 21.8 41.7 19.3 SW 31.1 WSW 0.0
17:25 21.7 43.3 16.9 WSW 30.0 SW 0.0
17:30 21.4 45.3 22.5 SW 37.0 WSW 0.0
17:35 21.0 46.9 21.3 SW 35.3 WSW 0.0
17:40 20.7 48.1 23.6 SW 38.5 SW 0.0
17:45 20.4 49.8 20.3 SW 40.6 SW 0.0
17:50 20.0 50.4 23.9 SW 39.2 SW 0.0
17:55 19.6 51.4 23.8 SW 38.8 SW 0.0
18:00 19.4 51.6 20.5 SW 38.8 SSW 0.0
18:05 19.2 52.0 19.2 SW 31.4 SW 0.0
18:10 19.1 52.3 21.2 WSW 33.5 SW 0.0
18:15 18.9 52.5 27.7 WSW 52.2 SW 0.0
18:20 18.5 54.4 33.3 WSW 50.8 SSW 0.0
18:25 17.7 59.8 31.0 W 45.2 WNW 0.0
18:30 17.2 62.1 26.2 W 39.2 W 0.0
18:35 16.7 65.6 28.0 W 42.3 W 0.0
18:40 16.0 69.9 20.9 W 32.5 W 0.0
18:45 15.7 70.5 12.5 W 22.9 WSW 0.0
18:50 15.6 69.2 11.1 W 16.2 WNW 0.0
18:55 15.5 69.7 13.6 W 24.7 WSW 0.0
19:00 15.4 70.5 11.2 WSW 20.8 WSW 0.0
19:05 15.2 71.1 14.2 W 21.2 W 0.0
19:10 15.1 71.3 15.1 WSW 22.2 WSW 0.0
19:15 15.0 71.1 13.1 WSW 23.3 WSW 0.0
Máxima 23.3 100.0 33.3 WSW 52.2 SW 0.1
Mínima 7.8 33.2
Total 0.1